sensor_id;sensor_type;location;lat;lon;timestamp;P1;durP1;ratioP1;P2;durP2;ratioP2
41627;SDS011;27321;50.816;6.054;2023-04-06T00:00:42;12.87;;;7.80;;
41627;SDS011;27321;50.816;6.054;2023-04-06T00:03:43;13.90;;;8.27;;
41627;SDS011;27321;50.816;6.054;2023-04-06T00:06:44;12.53;;;8.20;;
41627;SDS011;27321;50.816;6.054;2023-04-06T00:09:45;12.77;;;7.77;;
41627;SDS011;27321;50.816;6.054;2023-04-06T00:12:46;12.87;;;7.87;;
41627;SDS011;27321;50.816;6.054;2023-04-06T00:15:47;11.45;;;7.47;;
41627;SDS011;27321;50.816;6.054;2023-04-06T00:18:48;11.10;;;7.73;;
41627;SDS011;27321;50.816;6.054;2023-04-06T00:21:49;11.33;;;7.60;;
41627;SDS011;27321;50.816;6.054;2023-04-06T00:24:50;12.38;;;8.38;;
41627;SDS011;27321;50.816;6.054;2023-04-06T00:27:52;15.23;;;7.90;;
41627;SDS011;27321;50.816;6.054;2023-04-06T00:30:53;13.20;;;8.05;;
41627;SDS011;27321;50.816;6.054;2023-04-06T00:33:57;12.57;;;8.00;;
41627;SDS011;27321;50.816;6.054;2023-04-06T00:36:58;12.83;;;8.13;;
41627;SDS011;27321;50.816;6.054;2023-04-06T00:39:59;11.27;;;7.80;;
41627;SDS011;27321;50.816;6.054;2023-04-06T00:43:01;13.50;;;8.57;;
41627;SDS011;27321;50.816;6.054;2023-04-06T00:46:02;13.30;;;8.23;;
41627;SDS011;27321;50.816;6.054;2023-04-06T00:49:03;12.40;;;7.77;;
41627;SDS011;27321;50.816;6.054;2023-04-06T00:52:05;13.73;;;8.35;;
41627;SDS011;27321;50.816;6.054;2023-04-06T00:55:06;13.75;;;8.23;;
41627;SDS011;27321;50.816;6.054;2023-04-06T00:58:13;13.77;;;8.13;;
41627;SDS011;27321;50.816;6.054;2023-04-06T01:01:22;10.37;;;7.60;;
41627;SDS011;27321;50.816;6.054;2023-04-06T01:04:26;11.00;;;7.53;;
41627;SDS011;27321;50.816;6.054;2023-04-06T01:10:39;10.33;;;7.03;;
41627;SDS011;27321;50.816;6.054;2023-04-06T01:14:06;13.10;;;7.43;;
41627;SDS011;27321;50.816;6.054;2023-04-06T01:17:23;12.90;;;7.73;;
41627;SDS011;27321;50.816;6.054;2023-04-06T01:20:25;12.50;;;7.20;;
41627;SDS011;27321;50.816;6.054;2023-04-06T01:26:28;12.70;;;7.50;;
41627;SDS011;27321;50.816;6.054;2023-04-06T01:29:32;14.57;;;7.80;;
41627;SDS011;27321;50.816;6.054;2023-04-06T01:32:37;15.07;;;8.40;;
41627;SDS011;27321;50.816;6.054;2023-04-06T01:35:38;13.70;;;7.53;;
41627;SDS011;27321;50.816;6.054;2023-04-06T01:38:52;12.23;;;7.47;;
41627;SDS011;27321;50.816;6.054;2023-04-06T01:41:57;12.57;;;8.30;;
41627;SDS011;27321;50.816;6.054;2023-04-06T01:45:00;12.93;;;8.23;;
41627;SDS011;27321;50.816;6.054;2023-04-06T01:48:01;15.25;;;7.68;;
41627;SDS011;27321;50.816;6.054;2023-04-06T01:51:03;12.83;;;7.53;;
41627;SDS011;27321;50.816;6.054;2023-04-06T01:54:09;12.47;;;8.07;;
41627;SDS011;27321;50.816;6.054;2023-04-06T01:57:33;13.23;;;8.00;;
41627;SDS011;27321;50.816;6.054;2023-04-06T02:00:46;11.17;;;7.63;;
41627;SDS011;27321;50.816;6.054;2023-04-06T02:03:47;11.70;;;7.13;;
41627;SDS011;27321;50.816;6.054;2023-04-06T02:06:48;11.18;;;7.43;;
41627;SDS011;27321;50.816;6.054;2023-04-06T02:09:54;12.63;;;7.20;;
41627;SDS011;27321;50.816;6.054;2023-04-06T02:13:01;11.63;;;7.23;;
41627;SDS011;27321;50.816;6.054;2023-04-06T02:16:02;11.68;;;7.22;;
41627;SDS011;27321;50.816;6.054;2023-04-06T02:19:03;11.02;;;7.65;;
41627;SDS011;27321;50.816;6.054;2023-04-06T02:22:04;10.53;;;7.33;;
41627;SDS011;27321;50.816;6.054;2023-04-06T02:25:06;11.90;;;7.38;;
41627;SDS011;27321;50.816;6.054;2023-04-06T02:28:08;10.63;;;7.53;;
41627;SDS011;27321;50.816;6.054;2023-04-06T02:31:09;11.73;;;8.07;;
41627;SDS011;27321;50.816;6.054;2023-04-06T02:34:11;11.27;;;7.13;;
41627;SDS011;27321;50.816;6.054;2023-04-06T02:37:19;15.67;;;7.80;;
41627;SDS011;27321;50.816;6.054;2023-04-06T02:40:21;13.70;;;7.70;;
41627;SDS011;27321;50.816;6.054;2023-04-06T02:43:22;15.80;;;7.35;;
41627;SDS011;27321;50.816;6.054;2023-04-06T02:46:28;12.07;;;7.07;;
41627;SDS011;27321;50.816;6.054;2023-04-06T02:49:29;11.68;;;6.97;;
41627;SDS011;27321;50.816;6.054;2023-04-06T02:52:32;11.63;;;7.10;;
41627;SDS011;27321;50.816;6.054;2023-04-06T02:55:34;13.18;;;7.55;;
41627;SDS011;27321;50.816;6.054;2023-04-06T02:58:35;12.53;;;7.03;;
41627;SDS011;27321;50.816;6.054;2023-04-06T03:01:37;10.20;;;6.80;;
41627;SDS011;27321;50.816;6.054;2023-04-06T03:04:40;12.33;;;7.63;;
41627;SDS011;27321;50.816;6.054;2023-04-06T03:07:51;11.93;;;6.80;;
41627;SDS011;27321;50.816;6.054;2023-04-06T03:11:01;11.53;;;6.90;;
41627;SDS011;27321;50.816;6.054;2023-04-06T03:14:10;11.50;;;6.47;;
41627;SDS011;27321;50.816;6.054;2023-04-06T03:17:11;15.77;;;6.47;;
41627;SDS011;27321;50.816;6.054;2023-04-06T03:20:12;9.20;;;6.28;;
41627;SDS011;27321;50.816;6.054;2023-04-06T03:23:13;11.88;;;6.95;;
41627;SDS011;27321;50.816;6.054;2023-04-06T03:26:17;11.40;;;7.43;;
41627;SDS011;27321;50.816;6.054;2023-04-06T03:29:19;12.17;;;7.03;;
41627;SDS011;27321;50.816;6.054;2023-04-06T03:32:20;13.30;;;6.73;;
41627;SDS011;27321;50.816;6.054;2023-04-06T03:35:21;11.35;;;7.07;;
41627;SDS011;27321;50.816;6.054;2023-04-06T03:38:22;11.35;;;6.72;;
41627;SDS011;27321;50.816;6.054;2023-04-06T03:41:23;10.87;;;6.63;;
41627;SDS011;27321;50.816;6.054;2023-04-06T03:44:34;12.13;;;6.67;;
41627;SDS011;27321;50.816;6.054;2023-04-06T03:47:35;10.60;;;6.35;;
41627;SDS011;27321;50.816;6.054;2023-04-06T03:50:39;10.37;;;6.80;;
41627;SDS011;27321;50.816;6.054;2023-04-06T03:53:40;11.53;;;6.47;;
41627;SDS011;27321;50.816;6.054;2023-04-06T03:56:41;8.83;;;6.10;;
41627;SDS011;27321;50.816;6.054;2023-04-06T03:59:42;10.17;;;7.07;;
41627;SDS011;27321;50.816;6.054;2023-04-06T04:02:43;11.50;;;6.47;;
41627;SDS011;27321;50.816;6.054;2023-04-06T04:05:44;9.57;;;6.13;;
41627;SDS011;27321;50.816;6.054;2023-04-06T04:08:46;9.67;;;6.23;;
41627;SDS011;27321;50.816;6.054;2023-04-06T04:11:47;12.00;;;6.93;;
41627;SDS011;27321;50.816;6.054;2023-04-06T04:14:48;10.23;;;6.40;;
41627;SDS011;27321;50.816;6.054;2023-04-06T04:17:52;8.80;;;5.97;;
41627;SDS011;27321;50.816;6.054;2023-04-06T04:20:53;8.97;;;5.80;;
41627;SDS011;27321;50.816;6.054;2023-04-06T04:23:56;10.37;;;6.00;;
41627;SDS011;27321;50.816;6.054;2023-04-06T04:26:57;10.70;;;6.32;;
41627;SDS011;27321;50.816;6.054;2023-04-06T04:30:02;10.83;;;6.20;;
41627;SDS011;27321;50.816;6.054;2023-04-06T04:33:04;11.23;;;6.40;;
41627;SDS011;27321;50.816;6.054;2023-04-06T04:36:06;11.15;;;6.55;;
41627;SDS011;27321;50.816;6.054;2023-04-06T04:39:13;9.67;;;6.00;;
41627;SDS011;27321;50.816;6.054;2023-04-06T04:42:19;8.03;;;6.03;;
41627;SDS011;27321;50.816;6.054;2023-04-06T04:45:24;11.93;;;6.53;;
41627;SDS011;27321;50.816;6.054;2023-04-06T04:48:26;8.77;;;5.68;;
41627;SDS011;27321;50.816;6.054;2023-04-06T04:51:33;9.87;;;6.67;;
41627;SDS011;27321;50.816;6.054;2023-04-06T04:54:51;10.90;;;6.20;;
41627;SDS011;27321;50.816;6.054;2023-04-06T04:57:58;8.50;;;5.77;;
41627;SDS011;27321;50.816;6.054;2023-04-06T05:01:14;13.40;;;6.37;;
41627;SDS011;27321;50.816;6.054;2023-04-06T05:04:17;11.90;;;6.73;;
41627;SDS011;27321;50.816;6.054;2023-04-06T05:07:18;8.23;;;5.90;;
41627;SDS011;27321;50.816;6.054;2023-04-06T05:10:21;8.47;;;6.13;;
41627;SDS011;27321;50.816;6.054;2023-04-06T05:13:34;11.77;;;6.83;;
41627;SDS011;27321;50.816;6.054;2023-04-06T05:16:41;10.77;;;6.30;;
41627;SDS011;27321;50.816;6.054;2023-04-06T05:19:42;9.93;;;6.25;;
41627;SDS011;27321;50.816;6.054;2023-04-06T05:22:45;9.50;;;6.10;;
41627;SDS011;27321;50.816;6.054;2023-04-06T05:25:46;9.95;;;6.25;;
41627;SDS011;27321;50.816;6.054;2023-04-06T05:28:54;8.87;;;5.87;;
41627;SDS011;27321;50.816;6.054;2023-04-06T05:31:56;9.43;;;6.40;;
41627;SDS011;27321;50.816;6.054;2023-04-06T05:34:58;8.88;;;5.70;;
41627;SDS011;27321;50.816;6.054;2023-04-06T05:37:59;9.35;;;6.03;;
41627;SDS011;27321;50.816;6.054;2023-04-06T05:44:06;9.30;;;6.13;;
41627;SDS011;27321;50.816;6.054;2023-04-06T05:47:07;9.55;;;6.43;;
41627;SDS011;27321;50.816;6.054;2023-04-06T05:50:11;10.70;;;6.57;;
41627;SDS011;27321;50.816;6.054;2023-04-06T05:53:14;10.27;;;6.20;;
41627;SDS011;27321;50.816;6.054;2023-04-06T05:56:23;9.83;;;5.97;;
41627;SDS011;27321;50.816;6.054;2023-04-06T06:02:27;8.27;;;5.63;;
41627;SDS011;27321;50.816;6.054;2023-04-06T06:05:31;10.87;;;5.90;;
41627;SDS011;27321;50.816;6.054;2023-04-06T06:08:39;9.00;;;5.40;;
41627;SDS011;27321;50.816;6.054;2023-04-06T06:11:46;9.80;;;6.27;;
41627;SDS011;27321;50.816;6.054;2023-04-06T06:14:49;9.23;;;5.83;;
41627;SDS011;27321;50.816;6.054;2023-04-06T06:17:50;9.53;;;5.80;;
41627;SDS011;27321;50.816;6.054;2023-04-06T06:20:52;9.35;;;5.50;;
41627;SDS011;27321;50.816;6.054;2023-04-06T06:23:53;10.13;;;5.80;;
41627;SDS011;27321;50.816;6.054;2023-04-06T06:26:55;10.07;;;5.90;;
41627;SDS011;27321;50.816;6.054;2023-04-06T06:30:00;12.13;;;6.03;;
41627;SDS011;27321;50.816;6.054;2023-04-06T06:33:05;9.67;;;5.40;;
41627;SDS011;27321;50.816;6.054;2023-04-06T06:36:06;9.82;;;5.97;;
41627;SDS011;27321;50.816;6.054;2023-04-06T06:39:07;8.57;;;5.72;;
41627;SDS011;27321;50.816;6.054;2023-04-06T06:42:08;12.33;;;6.33;;
41627;SDS011;27321;50.816;6.054;2023-04-06T06:45:33;11.57;;;6.10;;
41627;SDS011;27321;50.816;6.054;2023-04-06T06:48:34;9.75;;;5.55;;
41627;SDS011;27321;50.816;6.054;2023-04-06T06:51:35;9.82;;;5.72;;
41627;SDS011;27321;50.816;6.054;2023-04-06T06:54:36;10.93;;;5.47;;
41627;SDS011;27321;50.816;6.054;2023-04-06T06:57:37;11.10;;;5.70;;
41627;SDS011;27321;50.816;6.054;2023-04-06T07:00:40;8.60;;;5.40;;
41627;SDS011;27321;50.816;6.054;2023-04-06T07:03:42;9.55;;;5.53;;
41627;SDS011;27321;50.816;6.054;2023-04-06T07:06:42;11.70;;;6.27;;
41627;SDS011;27321;50.816;6.054;2023-04-06T07:09:44;9.63;;;5.83;;
41627;SDS011;27321;50.816;6.054;2023-04-06T07:12:45;9.40;;;5.90;;
41627;SDS011;27321;50.816;6.054;2023-04-06T07:15:46;12.57;;;6.03;;
41627;SDS011;27321;50.816;6.054;2023-04-06T07:18:47;9.35;;;5.18;;
41627;SDS011;27321;50.816;6.054;2023-04-06T07:21:50;10.47;;;5.53;;
41627;SDS011;27321;50.816;6.054;2023-04-06T07:24:51;13.70;;;6.43;;
41627;SDS011;27321;50.816;6.054;2023-04-06T07:27:52;10.77;;;5.67;;
41627;SDS011;27321;50.816;6.054;2023-04-06T07:30:53;8.48;;;5.50;;
41627;SDS011;27321;50.816;6.054;2023-04-06T07:33:55;11.27;;;5.80;;
41627;SDS011;27321;50.816;6.054;2023-04-06T07:36:57;9.85;;;5.30;;
41627;SDS011;27321;50.816;6.054;2023-04-06T07:39:59;9.50;;;5.03;;
41627;SDS011;27321;50.816;6.054;2023-04-06T07:43:01;9.00;;;5.47;;
41627;SDS011;27321;50.816;6.054;2023-04-06T07:46:03;10.40;;;5.93;;
41627;SDS011;27321;50.816;6.054;2023-04-06T07:49:04;9.25;;;5.28;;
41627;SDS011;27321;50.816;6.054;2023-04-06T07:52:07;9.80;;;5.23;;
41627;SDS011;27321;50.816;6.054;2023-04-06T07:55:08;12.13;;;5.83;;
41627;SDS011;27321;50.816;6.054;2023-04-06T07:58:09;11.05;;;5.97;;
41627;SDS011;27321;50.816;6.054;2023-04-06T08:01:10;9.97;;;5.53;;
41627;SDS011;27321;50.816;6.054;2023-04-06T08:04:11;11.43;;;6.03;;
41627;SDS011;27321;50.816;6.054;2023-04-06T08:07:12;11.40;;;5.80;;
41627;SDS011;27321;50.816;6.054;2023-04-06T08:10:13;8.65;;;5.55;;
41627;SDS011;27321;50.816;6.054;2023-04-06T08:13:15;10.27;;;6.05;;
41627;SDS011;27321;50.816;6.054;2023-04-06T08:16:16;10.38;;;5.38;;
41627;SDS011;27321;50.816;6.054;2023-04-06T08:19:17;11.50;;;6.35;;
41627;SDS011;27321;50.816;6.054;2023-04-06T08:22:19;11.38;;;5.65;;
41627;SDS011;27321;50.816;6.054;2023-04-06T08:25:20;12.45;;;6.70;;
41627;SDS011;27321;50.816;6.054;2023-04-06T08:28:21;12.48;;;6.53;;
41627;SDS011;27321;50.816;6.054;2023-04-06T08:31:22;14.80;;;6.53;;
41627;SDS011;27321;50.816;6.054;2023-04-06T08:34:23;13.55;;;7.05;;
41627;SDS011;27321;50.816;6.054;2023-04-06T08:37:24;14.30;;;7.33;;
41627;SDS011;27321;50.816;6.054;2023-04-06T08:40:26;12.75;;;7.13;;
41627;SDS011;27321;50.816;6.054;2023-04-06T08:46:29;12.93;;;6.38;;
41627;SDS011;27321;50.816;6.054;2023-04-06T08:49:31;12.20;;;7.05;;
41627;SDS011;27321;50.816;6.054;2023-04-06T08:52:33;10.07;;;6.20;;
41627;SDS011;27321;50.816;6.054;2023-04-06T08:55:34;13.17;;;6.90;;
41627;SDS011;27321;50.816;6.054;2023-04-06T08:58:37;11.70;;;6.80;;
41627;SDS011;27321;50.816;6.054;2023-04-06T09:01:40;12.37;;;6.63;;
41627;SDS011;27321;50.816;6.054;2023-04-06T09:04:45;12.03;;;7.03;;
41627;SDS011;27321;50.816;6.054;2023-04-06T09:07:49;11.10;;;6.23;;
41627;SDS011;27321;50.816;6.054;2023-04-06T09:10:50;12.10;;;7.17;;
41627;SDS011;27321;50.816;6.054;2023-04-06T09:13:55;13.93;;;8.17;;
41627;SDS011;27321;50.816;6.054;2023-04-06T09:16:57;13.37;;;8.00;;
41627;SDS011;27321;50.816;6.054;2023-04-06T09:19:59;15.97;;;8.50;;
41627;SDS011;27321;50.816;6.054;2023-04-06T09:23:01;15.43;;;9.37;;
41627;SDS011;27321;50.816;6.054;2023-04-06T09:26:15;15.53;;;8.70;;
41627;SDS011;27321;50.816;6.054;2023-04-06T09:29:27;11.33;;;6.63;;
41627;SDS011;27321;50.816;6.054;2023-04-06T09:32:28;11.70;;;7.17;;
41627;SDS011;27321;50.816;6.054;2023-04-06T09:35:29;13.85;;;7.28;;
41627;SDS011;27321;50.816;6.054;2023-04-06T09:38:31;14.57;;;7.83;;
41627;SDS011;27321;50.816;6.054;2023-04-06T09:41:34;14.77;;;8.50;;
41627;SDS011;27321;50.816;6.054;2023-04-06T09:44:36;14.03;;;8.73;;
41627;SDS011;27321;50.816;6.054;2023-04-06T09:47:37;15.98;;;9.05;;
41627;SDS011;27321;50.816;6.054;2023-04-06T09:50:40;14.70;;;8.60;;
41627;SDS011;27321;50.816;6.054;2023-04-06T09:53:41;15.68;;;8.98;;
41627;SDS011;27321;50.816;6.054;2023-04-06T10:00:12;15.47;;;7.87;;
41627;SDS011;27321;50.816;6.054;2023-04-06T10:06:39;10.00;;;6.73;;
41627;SDS011;27321;50.816;6.054;2023-04-06T10:12:45;13.13;;;7.13;;
41627;SDS011;27321;50.816;6.054;2023-04-06T10:15:49;10.27;;;6.40;;
41627;SDS011;27321;50.816;6.054;2023-04-06T10:19:37;10.30;;;6.30;;
41627;SDS011;27321;50.816;6.054;2023-04-06T10:22:34;11.67;;;6.70;;
41627;SDS011;27321;50.816;6.054;2023-04-06T10:25:54;11.68;;;6.10;;
41627;SDS011;27321;50.816;6.054;2023-04-06T10:29:02;9.83;;;6.53;;
41627;SDS011;27321;50.816;6.054;2023-04-06T10:32:04;10.23;;;7.10;;
41627;SDS011;27321;50.816;6.054;2023-04-06T10:35:09;10.23;;;6.28;;
41627;SDS011;27321;50.816;6.054;2023-04-06T10:38:13;7.70;;;5.53;;
41627;SDS011;27321;50.816;6.054;2023-04-06T10:41:16;9.05;;;5.95;;
41627;SDS011;27321;50.816;6.054;2023-04-06T10:44:21;8.67;;;6.13;;
41627;SDS011;27321;50.816;6.054;2023-04-06T10:47:24;13.83;;;6.60;;
41627;SDS011;27321;50.816;6.054;2023-04-06T10:50:27;9.43;;;5.90;;
41627;SDS011;27321;50.816;6.054;2023-04-06T10:53:30;8.60;;;6.10;;
41627;SDS011;27321;50.816;6.054;2023-04-06T10:56:37;8.93;;;6.00;;
41627;SDS011;27321;50.816;6.054;2023-04-06T10:59:43;10.07;;;5.97;;
41627;SDS011;27321;50.816;6.054;2023-04-06T11:02:46;9.97;;;5.97;;
41627;SDS011;27321;50.816;6.054;2023-04-06T11:08:51;11.00;;;6.43;;
41627;SDS011;27321;50.816;6.054;2023-04-06T11:11:52;8.67;;;5.50;;
41627;SDS011;27321;50.816;6.054;2023-04-06T11:14:55;9.33;;;5.57;;
41627;SDS011;27321;50.816;6.054;2023-04-06T11:18:06;9.00;;;6.07;;
41627;SDS011;27321;50.816;6.054;2023-04-06T11:21:08;8.15;;;5.22;;
41627;SDS011;27321;50.816;6.054;2023-04-06T11:27:19;8.20;;;6.13;;
41627;SDS011;27321;50.816;6.054;2023-04-06T11:30:21;10.45;;;6.70;;
41627;SDS011;27321;50.816;6.054;2023-04-06T11:33:23;9.87;;;6.33;;
41627;SDS011;27321;50.816;6.054;2023-04-06T11:36:27;10.77;;;6.70;;
41627;SDS011;27321;50.816;6.054;2023-04-06T11:39:31;8.03;;;5.87;;
41627;SDS011;27321;50.816;6.054;2023-04-06T11:42:38;9.93;;;6.77;;
41627;SDS011;27321;50.816;6.054;2023-04-06T11:45:43;8.48;;;6.40;;
41627;SDS011;27321;50.816;6.054;2023-04-06T11:48:44;10.17;;;6.23;;
41627;SDS011;27321;50.816;6.054;2023-04-06T11:51:46;11.00;;;6.30;;
41627;SDS011;27321;50.816;6.054;2023-04-06T11:54:48;9.97;;;6.67;;
41627;SDS011;27321;50.816;6.054;2023-04-06T11:57:50;9.20;;;6.13;;
41627;SDS011;27321;50.816;6.054;2023-04-06T12:00:51;9.63;;;6.75;;
41627;SDS011;27321;50.816;6.054;2023-04-06T12:06:55;8.53;;;5.60;;
41627;SDS011;27321;50.816;6.054;2023-04-06T12:09:56;9.55;;;6.60;;
41627;SDS011;27321;50.816;6.054;2023-04-06T12:12:59;7.97;;;5.87;;
41627;SDS011;27321;50.816;6.054;2023-04-06T12:16:01;8.43;;;5.97;;
41627;SDS011;27321;50.816;6.054;2023-04-06T12:19:02;8.18;;;5.93;;
41627;SDS011;27321;50.816;6.054;2023-04-06T12:22:04;8.97;;;6.03;;
41627;SDS011;27321;50.816;6.054;2023-04-06T12:25:06;9.90;;;6.53;;
41627;SDS011;27321;50.816;6.054;2023-04-06T12:28:08;9.23;;;5.37;;
41627;SDS011;27321;50.816;6.054;2023-04-06T12:31:13;9.80;;;5.75;;
41627;SDS011;27321;50.816;6.054;2023-04-06T12:34:19;8.00;;;5.70;;
41627;SDS011;27321;50.816;6.054;2023-04-06T12:37:20;8.43;;;5.82;;
41627;SDS011;27321;50.816;6.054;2023-04-06T12:40:21;8.18;;;5.50;;
41627;SDS011;27321;50.816;6.054;2023-04-06T12:43:23;6.83;;;4.60;;
41627;SDS011;27321;50.816;6.054;2023-04-06T12:46:26;6.93;;;4.50;;
41627;SDS011;27321;50.816;6.054;2023-04-06T12:49:27;8.02;;;4.95;;
41627;SDS011;27321;50.816;6.054;2023-04-06T12:52:28;6.43;;;4.38;;
41627;SDS011;27321;50.816;6.054;2023-04-06T12:55:32;6.07;;;4.40;;
41627;SDS011;27321;50.816;6.054;2023-04-06T12:58:37;7.33;;;4.10;;
41627;SDS011;27321;50.816;6.054;2023-04-06T13:01:41;7.47;;;4.47;;
41627;SDS011;27321;50.816;6.054;2023-04-06T13:04:46;6.70;;;4.50;;
41627;SDS011;27321;50.816;6.054;2023-04-06T13:07:47;6.00;;;4.10;;
41627;SDS011;27321;50.816;6.054;2023-04-06T13:10:49;6.93;;;4.60;;
41627;SDS011;27321;50.816;6.054;2023-04-06T13:13:55;6.00;;;4.10;;
41627;SDS011;27321;50.816;6.054;2023-04-06T13:16:57;5.23;;;4.13;;
41627;SDS011;27321;50.816;6.054;2023-04-06T13:19:59;6.40;;;4.53;;
41627;SDS011;27321;50.816;6.054;2023-04-06T13:23:00;5.65;;;3.92;;
41627;SDS011;27321;50.816;6.054;2023-04-06T13:26:06;4.28;;;3.50;;
41627;SDS011;27321;50.816;6.054;2023-04-06T13:29:08;4.63;;;3.53;;
41627;SDS011;27321;50.816;6.054;2023-04-06T13:32:10;5.18;;;3.75;;
41627;SDS011;27321;50.816;6.054;2023-04-06T13:35:11;5.05;;;3.38;;
41627;SDS011;27321;50.816;6.054;2023-04-06T13:38:13;8.00;;;4.07;;
41627;SDS011;27321;50.816;6.054;2023-04-06T13:41:23;5.67;;;3.57;;
41627;SDS011;27321;50.816;6.054;2023-04-06T13:44:27;4.30;;;3.17;;
41627;SDS011;27321;50.816;6.054;2023-04-06T13:47:28;4.07;;;3.30;;
41627;SDS011;27321;50.816;6.054;2023-04-06T13:50:29;5.55;;;3.78;;
41627;SDS011;27321;50.816;6.054;2023-04-06T13:53:31;6.88;;;3.65;;
41627;SDS011;27321;50.816;6.054;2023-04-06T13:56:35;5.07;;;3.60;;
41627;SDS011;27321;50.816;6.054;2023-04-06T13:59:37;4.40;;;3.58;;
41627;SDS011;27321;50.816;6.054;2023-04-06T14:02:39;4.97;;;2.90;;
41627;SDS011;27321;50.816;6.054;2023-04-06T14:05:40;4.57;;;3.40;;
41627;SDS011;27321;50.816;6.054;2023-04-06T14:08:41;3.57;;;2.87;;
41627;SDS011;27321;50.816;6.054;2023-04-06T14:11:42;3.33;;;2.85;;
41627;SDS011;27321;50.816;6.054;2023-04-06T14:14:43;3.77;;;2.53;;
41627;SDS011;27321;50.816;6.054;2023-04-06T14:17:58;3.27;;;2.77;;
41627;SDS011;27321;50.816;6.054;2023-04-06T14:21:19;3.07;;;2.37;;
41627;SDS011;27321;50.816;6.054;2023-04-06T14:24:20;4.35;;;3.22;;
41627;SDS011;27321;50.816;6.054;2023-04-06T14:27:24;4.10;;;2.93;;
41627;SDS011;27321;50.816;6.054;2023-04-06T14:30:26;2.60;;;2.40;;
41627;SDS011;27321;50.816;6.054;2023-04-06T14:33:28;4.75;;;3.47;;
41627;SDS011;27321;50.816;6.054;2023-04-06T14:36:31;3.20;;;2.87;;
41627;SDS011;27321;50.816;6.054;2023-04-06T14:39:39;3.03;;;2.57;;
41627;SDS011;27321;50.816;6.054;2023-04-06T14:42:40;4.10;;;2.65;;
41627;SDS011;27321;50.816;6.054;2023-04-06T14:45:41;3.60;;;2.53;;
41627;SDS011;27321;50.816;6.054;2023-04-06T14:48:42;3.33;;;2.87;;
41627;SDS011;27321;50.816;6.054;2023-04-06T14:51:45;3.33;;;2.30;;
41627;SDS011;27321;50.816;6.054;2023-04-06T14:54:46;3.60;;;2.20;;
41627;SDS011;27321;50.816;6.054;2023-04-06T14:57:47;2.30;;;2.10;;
41627;SDS011;27321;50.816;6.054;2023-04-06T15:00:48;2.78;;;1.90;;
41627;SDS011;27321;50.816;6.054;2023-04-06T15:03:50;2.50;;;2.30;;
41627;SDS011;27321;50.816;6.054;2023-04-06T15:06:51;2.90;;;2.15;;
41627;SDS011;27321;50.816;6.054;2023-04-06T15:09:52;1.97;;;1.80;;
41627;SDS011;27321;50.816;6.054;2023-04-06T15:12:53;1.83;;;1.67;;
41627;SDS011;27321;50.816;6.054;2023-04-06T15:15:54;2.30;;;2.10;;
41627;SDS011;27321;50.816;6.054;2023-04-06T15:18:56;1.80;;;1.70;;
41627;SDS011;27321;50.816;6.054;2023-04-06T15:21:57;2.17;;;1.58;;
41627;SDS011;27321;50.816;6.054;2023-04-06T15:24:58;1.77;;;1.67;;
41627;SDS011;27321;50.816;6.054;2023-04-06T15:27:59;2.17;;;1.93;;
41627;SDS011;27321;50.816;6.054;2023-04-06T15:31:00;1.55;;;1.45;;
41627;SDS011;27321;50.816;6.054;2023-04-06T15:34:06;1.97;;;1.77;;
41627;SDS011;27321;50.816;6.054;2023-04-06T15:37:08;2.20;;;1.70;;
41627;SDS011;27321;50.816;6.054;2023-04-06T15:40:09;2.47;;;1.47;;
41627;SDS011;27321;50.816;6.054;2023-04-06T15:43:13;2.93;;;1.60;;
41627;SDS011;27321;50.816;6.054;2023-04-06T15:46:15;1.50;;;1.40;;
41627;SDS011;27321;50.816;6.054;2023-04-06T15:49:27;1.83;;;1.73;;
41627;SDS011;27321;50.816;6.054;2023-04-06T15:52:28;2.53;;;1.70;;
41627;SDS011;27321;50.816;6.054;2023-04-06T15:55:29;2.00;;;1.80;;
41627;SDS011;27321;50.816;6.054;2023-04-06T15:58:31;2.27;;;1.77;;
41627;SDS011;27321;50.816;6.054;2023-04-06T16:01:33;1.80;;;1.53;;
41627;SDS011;27321;50.816;6.054;2023-04-06T16:04:34;2.57;;;1.83;;
41627;SDS011;27321;50.816;6.054;2023-04-06T16:07:35;2.10;;;1.70;;
41627;SDS011;27321;50.816;6.054;2023-04-06T16:13:38;1.60;;;1.50;;
41627;SDS011;27321;50.816;6.054;2023-04-06T16:16:39;1.80;;;1.70;;
41627;SDS011;27321;50.816;6.054;2023-04-06T16:19:42;1.87;;;1.53;;
41627;SDS011;27321;50.816;6.054;2023-04-06T16:22:43;2.27;;;1.80;;
41627;SDS011;27321;50.816;6.054;2023-04-06T16:25:44;1.98;;;1.60;;
41627;SDS011;27321;50.816;6.054;2023-04-06T16:28:45;2.92;;;2.63;;
41627;SDS011;27321;50.816;6.054;2023-04-06T16:31:59;2.17;;;1.97;;
41627;SDS011;27321;50.816;6.054;2023-04-06T16:35:01;1.70;;;1.60;;
41627;SDS011;27321;50.816;6.054;2023-04-06T16:38:04;1.70;;;1.30;;
41627;SDS011;27321;50.816;6.054;2023-04-06T16:41:04;1.88;;;1.52;;
41627;SDS011;27321;50.816;6.054;2023-04-06T16:44:06;2.28;;;1.48;;
41627;SDS011;27321;50.816;6.054;2023-04-06T16:47:07;1.95;;;1.75;;
41627;SDS011;27321;50.816;6.054;2023-04-06T16:50:11;2.73;;;1.57;;
41627;SDS011;27321;50.816;6.054;2023-04-06T16:53:16;1.43;;;1.30;;
41627;SDS011;27321;50.816;6.054;2023-04-06T16:56:17;2.33;;;1.67;;
41627;SDS011;27321;50.816;6.054;2023-04-06T16:59:19;1.90;;;1.58;;
41627;SDS011;27321;50.816;6.054;2023-04-06T17:02:20;2.17;;;1.27;;
41627;SDS011;27321;50.816;6.054;2023-04-06T17:05:22;1.70;;;1.33;;
41627;SDS011;27321;50.816;6.054;2023-04-06T17:08:25;1.30;;;1.20;;
41627;SDS011;27321;50.816;6.054;2023-04-06T17:11:27;1.45;;;1.20;;
41627;SDS011;27321;50.816;6.054;2023-04-06T17:14:27;1.95;;;1.35;;
41627;SDS011;27321;50.816;6.054;2023-04-06T17:17:28;1.42;;;1.20;;
41627;SDS011;27321;50.816;6.054;2023-04-06T17:20:29;1.40;;;1.25;;
41627;SDS011;27321;50.816;6.054;2023-04-06T17:23:31;1.80;;;1.47;;
41627;SDS011;27321;50.816;6.054;2023-04-06T17:26:32;1.90;;;1.23;;
41627;SDS011;27321;50.816;6.054;2023-04-06T17:29:34;3.88;;;1.45;;
41627;SDS011;27321;50.816;6.054;2023-04-06T17:32:35;1.80;;;1.70;;
41627;SDS011;27321;50.816;6.054;2023-04-06T17:35:37;1.45;;;1.35;;
41627;SDS011;27321;50.816;6.054;2023-04-06T17:38:37;1.50;;;1.40;;
41627;SDS011;27321;50.816;6.054;2023-04-06T17:41:42;3.03;;;1.70;;
41627;SDS011;27321;50.816;6.054;2023-04-06T17:44:43;3.47;;;1.77;;
41627;SDS011;27321;50.816;6.054;2023-04-06T17:47:48;1.67;;;1.30;;
41627;SDS011;27321;50.816;6.054;2023-04-06T17:50:49;1.33;;;1.23;;
41627;SDS011;27321;50.816;6.054;2023-04-06T17:53:50;2.50;;;1.50;;
41627;SDS011;27321;50.816;6.054;2023-04-06T17:56:51;2.30;;;1.63;;
41627;SDS011;27321;50.816;6.054;2023-04-06T17:59:52;2.05;;;1.65;;
41627;SDS011;27321;50.816;6.054;2023-04-06T18:02:53;2.63;;;1.58;;
41627;SDS011;27321;50.816;6.054;2023-04-06T18:05:54;2.58;;;1.92;;
41627;SDS011;27321;50.816;6.054;2023-04-06T18:08:57;2.03;;;1.30;;
41627;SDS011;27321;50.816;6.054;2023-04-06T18:11:59;2.03;;;1.70;;
41627;SDS011;27321;50.816;6.054;2023-04-06T18:15:00;1.35;;;1.23;;
41627;SDS011;27321;50.816;6.054;2023-04-06T18:18:01;1.75;;;1.48;;
41627;SDS011;27321;50.816;6.054;2023-04-06T18:21:03;4.35;;;2.42;;
41627;SDS011;27321;50.816;6.054;2023-04-06T18:24:06;10.33;;;4.50;;
41627;SDS011;27321;50.816;6.054;2023-04-06T18:27:07;2.75;;;2.10;;
41627;SDS011;27321;50.816;6.054;2023-04-06T18:33:12;2.20;;;2.00;;
41627;SDS011;27321;50.816;6.054;2023-04-06T18:36:13;1.73;;;1.63;;
41627;SDS011;27321;50.816;6.054;2023-04-06T18:39:14;2.67;;;2.00;;
41627;SDS011;27321;50.816;6.054;2023-04-06T18:42:16;4.03;;;2.40;;
41627;SDS011;27321;50.816;6.054;2023-04-06T18:45:20;3.97;;;2.40;;
41627;SDS011;27321;50.816;6.054;2023-04-06T18:48:22;3.10;;;2.20;;
41627;SDS011;27321;50.816;6.054;2023-04-06T18:51:27;2.60;;;1.90;;
41627;SDS011;27321;50.816;6.054;2023-04-06T18:54:29;2.37;;;1.80;;